Latest Weather Observations for Onslow Airport

IDW60801

Issued at 10:05 pm WST Friday 31 October 2014 (issued every 30 minutes, with the page automatically refreshed every 10 minutes)

About weather observations | Map of weather stations | Latest weather observations for WA | Other Formats
Station Details ID: 005017 Name: ONSLOW AIRPORT Lat: -21.67 Lon: 115.11 Height: 10.5 m
Data from the previous 72 hours. | See also: Recent months at Onslow Airport
Date/Time
WST
Temp
°C
App
Temp
°C
Dew
Point
Rel
Hum
%
Delta-T
°C
Wind Press
QNH
hPa
Press
MSL
hPa
Rain
since 9 am
mm
Dir
 
Spd
km/h
Gust
km/h
Spd
kts
Gust
kts
31/10:00pm 24.6 21.9 15.5 57 5.5 SW 24 30 13 16 1011.9 1011.9 0.0
31/09:30pm 25.3 21.8 15.6 55 5.9 SW 28 35 15 19 1011.7 1011.7 0.0
31/09:00pm 26.0 22.2 15.7 53 6.3 SW 30 37 16 20 1011.5 1011.5 0.0
31/08:30pm 26.8 23.6 15.2 49 7.0 SW 26 35 14 19 1011.3 1011.3 0.0
31/08:00pm 27.5 24.5 14.8 45 7.7 SW 24 33 13 18 1011.0 1011.0 0.0
31/07:30pm 28.4 24.8 14.3 42 8.5 SW 26 35 14 19 1010.7 1010.7 0.0
31/07:00pm 29.5 24.2 12.4 35 10.0 SW 32 39 17 21 1010.2 1010.2 0.0
31/06:30pm 30.8 25.5 11.2 30 11.3 SW 30 39 16 21 1009.8 1009.8 0.0
31/06:00pm 32.6 27.4 8.8 23 13.4 WSW 26 33 14 18 1009.6 1009.6 0.0
31/05:30pm 31.9 28.3 11.7 29 11.8 W 22 35 12 19 1009.3 1009.3 0.0
31/05:00pm 31.4 28.7 16.6 41 9.3 W 26 32 14 17 1009.1 1009.1 0.0
31/04:30pm 33.9 30.5 11.1 25 13.3 W 20 32 11 17 1009.0 1009.0 0.0
31/04:00pm 36.1 30.9 5.4 15 16.7 SW 22 32 12 17 1008.9 1008.9 0.0
31/03:30pm 35.6 30.1 5.9 16 16.2 SW 24 32 13 17 1009.1 1009.1 0.0
31/03:00pm 36.0 30.8 5.3 15 16.6 SW 22 32 12 17 1009.3 1009.3 0.0
31/02:30pm 35.6 29.5 6.8 17 15.9 SW 28 41 15 22 1009.6 1009.6 0.0
31/02:00pm 35.5 29.0 6.7 17 15.9 SW 30 39 16 21 1009.9 1009.9 0.0
31/01:30pm 34.8 28.6 7.8 19 15.1 SW 30 41 16 22 1010.2 1010.2 0.0
31/01:00pm 33.4 27.6 8.1 21 14.1 SW 28 37 15 20 1010.7 1010.7 0.0
31/12:30pm 33.3 28.0 10.0 24 13.4 SSW 28 37 15 20 1011.3 1011.3 0.0
31/12:00pm 31.8 27.2 11.0 28 12.1 SW 26 37 14 20 1011.7 1011.7 0.0
31/11:30am 30.6 25.8 11.5 30 11.1 SW 28 35 15 19 1012.3 1012.3 0.0
31/11:00am 29.8 25.0 11.8 33 10.5 SSW 28 37 15 20 1012.7 1012.7 0.0
31/10:30am 29.0 25.2 12.4 36 9.7 SSW 24 33 13 18 1013.0 1013.0 0.0
31/10:00am 28.1 24.7 13.6 41 8.6 SSW 24 30 13 16 1013.3 1013.3 0.0
31/09:30am 26.1 22.7 13.6 46 7.4 SSW 24 32 13 17 1013.4 1013.4 0.0
31/09:00am 25.4 22.1 13.9 49 6.8 SSW 24 32 13 17 1013.5 1013.5 0.0
31/08:30am 24.1 20.5 14.2 54 5.8 SSW 26 32 14 17 1013.6 1013.6 0.0
31/08:00am 22.9 19.4 14.5 59 5.0 SSW 26 32 14 17 1013.5 1013.5 0.0
31/07:30am 21.6 17.8 14.7 65 4.1 SSW 28 33 15 18 1013.4 1013.4 0.0
31/07:00am 20.9 17.9 14.8 68 3.6 S 24 35 13 19 1013.3 1013.3 0.0
31/06:30am 20.0 16.6 14.8 72 3.0 SSW 26 32 14 17 1013.2 1013.2 0.0
31/06:00am 19.6 16.2 14.8 74 2.8 SSW 26 32 14 17 1012.9 1012.9 0.0
31/05:30am 19.6 16.6 14.8 74 2.8 SSW 24 32 13 17 1012.9 1012.9 0.0
31/05:00am 19.8 16.0 14.8 73 2.9 SSW 28 37 15 20 1012.6 1012.6 0.0
31/04:30am 20.1 16.4 14.9 72 3.0 SSW 28 39 15 21 1012.2 1012.2 0.0
31/04:00am 20.3 17.0 14.9 71 3.2 SSW 26 35 14 19 1012.0 1012.0 0.0
31/03:30am 20.6 16.1 14.9 70 3.3 SSW 32 39 17 21 1011.9 1011.9 0.0
31/03:00am 20.8 16.1 14.9 69 3.5 SSW 33 43 18 23 1011.8 1011.8 0.0
31/02:30am 21.2 17.2 15.1 68 3.6 SSW 30 41 16 22 1011.7 1011.7 0.0
31/02:00am 21.6 18.0 15.2 67 3.8 SSW 28 35 15 19 1011.7 1011.7 0.0
31/01:30am 22.0 18.5 15.4 66 3.9 SSW 28 35 15 19 1011.8 1011.8 0.0
31/01:00am 22.1 19.0 15.5 66 3.9 SSW 26 32 14 17 1012.1 1012.1 0.0
31/12:30am 22.4 19.5 16.0 67 3.9 SSW 26 35 14 19 1012.3 1012.3 0.0
31/12:00am 22.7 19.8 16.0 66 4.0 SW 26 35 14 19 1012.6 1012.6 0.0
 
Date/Time
WST
Temp
°C
App
Temp
°C
Dew
Point
Rel
Hum
%
Delta-T
°C
Wind Press
QNH
hPa
Press
MSL
hPa
Rain
since 9 am
mm
Dir
 
Spd
km/h
Gust
km/h
Spd
kts
Gust
kts
30/11:30pm 23.0 19.7 16.1 65 4.2 SW 28 37 15 20 1012.9 1012.9 0.0
30/11:00pm 23.3 19.8 16.4 65 4.2 SW 30 39 16 21 1012.9 1012.9 0.0
30/10:30pm 23.7 19.9 16.7 65 4.3 SW 32 43 17 23 1012.9 1012.9 0.0
30/10:00pm 24.2 20.8 16.7 63 4.6 SW 30 43 16 23 1013.1 1013.1 0.0
30/09:30pm 24.7 20.3 16.7 61 4.9 SW 35 46 19 25 1012.7 1012.7 0.0
30/09:00pm 25.7 21.9 17.1 59 5.3 SW 33 39 18 21 1012.4 1012.4 0.0
30/08:30pm 26.8 22.2 16.1 52 6.6 SW 35 43 19 23 1012.2 1012.2 0.0
30/08:21pm 27.2 23.5 15.9 50 6.9 SW 30 43 16 23 1012.1 1012.1 0.0
30/08:00pm 27.2 25.8 17.1 54 6.3 WSW 20 24 11 13 1012.0 1012.0 0.0
30/07:30pm 26.7 26.3 18.0 59 5.5 W 17 20 9 11 1011.6 1011.6 0.0
30/07:00pm 27.8 27.0 17.9 54 6.3 W 19 26 10 14 1011.1 1011.1 0.0
30/06:30pm 28.2 27.3 18.3 55 6.3 W 20 26 11 14 1010.7 1010.7 0.0
30/06:00pm 29.2 28.2 18.9 53 6.7 W 22 30 12 16 1010.4 1010.4 0.0
30/05:30pm 29.1 27.6 19.4 55 6.3 W 26 33 14 18 1010.2 1010.2 0.0
30/05:00pm 28.8 26.2 19.4 56 6.1 W 32 39 17 21 1010.1 1010.1 0.0
30/04:30pm 30.3 27.0 19.3 51 7.2 W 35 46 19 25 1009.8 1009.8 0.0
30/04:00pm 31.3 27.3 17.6 44 8.8 W 35 46 19 25 1009.6 1009.6 0.0
30/03:30pm 32.6 28.2 15.6 36 10.6 W 33 43 18 23 1009.6 1009.6 0.0
30/03:00pm 33.4 28.5 15.4 34 11.2 W 35 44 19 24 1009.6 1009.6 0.0
30/02:30pm 34.4 29.9 15.3 31 11.9 W 33 43 18 23 1009.6 1009.6 0.0
30/02:00pm 33.0 29.0 17.6 40 9.9 W 35 46 19 25 1009.9 1009.9 0.0
30/01:30pm 33.3 30.6 19.7 44 9.0 W 33 41 18 22 1010.2 1010.2 0.0
30/01:00pm 32.8 30.2 19.6 45 8.7 W 32 39 17 21 1010.6 1010.6 0.0
30/12:30pm 33.5 31.7 18.8 41 9.6 WNW 26 33 14 18 1010.8 1010.8 0.0
30/12:00pm 36.8 31.7 7.8 17 16.4 SW 24 32 13 17 1011.2 1011.2 0.0
30/11:30am 36.0 31.4 9.5 20 15.3 SW 24 30 13 16 1011.4 1011.4 0.0
30/11:00am 34.6 30.2 10.4 23 14.1 SW 24 32 13 17 1011.7 1011.7 0.0
30/10:30am 33.1 29.6 12.1 27 12.4 SW 22 28 12 15 1012.4 1012.4 0.0
30/10:00am 31.8 28.7 12.1 30 11.6 SSW 20 26 11 14 1012.9 1012.9 0.0
30/09:30am 30.6 28.7 14.2 36 9.9 SSW 17 26 9 14 1013.3 1013.3 0.0
30/09:00am 28.8 26.7 15.3 43 8.3 SSW 20 26 11 14 1013.6 1013.6 0.0
30/08:30am 27.0 25.4 16.0 51 6.8 SSW 19 24 10 13 1013.6 1013.6 0.0
30/08:00am 25.5 23.9 16.4 57 5.6 SSW 20 24 11 13 1013.5 1013.5 0.0
30/07:30am 23.9 22.2 16.2 62 4.7 SSW 20 26 11 14 1013.5 1013.5 0.0
30/07:00am 22.7 21.0 16.3 67 3.9 SSW 20 26 11 14 1013.2 1013.2 0.0
30/06:30am 21.7 20.1 16.0 70 3.4 SSW 19 24 10 13 1012.9 1012.9 0.0
30/06:00am 21.0 19.4 16.0 73 3.0 SSW 19 22 10 12 1012.6 1012.6 0.0
30/05:30am 21.1 19.5 16.1 73 3.0 SSW 19 24 10 13 1012.3 1012.3 0.0
30/05:00am 21.3 19.5 16.0 72 3.2 SSW 20 24 11 13 1012.2 1012.2 0.0
30/04:30am 21.6 19.8 16.1 71 3.3 SSW 20 26 11 14 1011.9 1011.9 0.0
30/04:00am 21.9 20.4 16.2 70 3.4 SSW 19 24 10 13 1011.9 1011.9 0.0
30/03:30am 22.1 20.5 16.4 70 3.5 SSW 20 26 11 14 1011.9 1011.9 0.0
30/03:00am 22.3 20.6 16.3 69 3.6 SSW 20 24 11 13 1011.7 1011.7 0.0
30/02:30am 22.5 21.1 16.5 69 3.7 SSW 19 24 10 13 1011.8 1011.8 0.0
30/02:00am 22.7 21.3 16.5 68 3.8 SSW 19 24 10 13 1011.9 1011.9 0.0
30/01:30am 23.0 21.4 16.5 67 4.0 SSW 20 26 11 14 1011.9 1011.9 0.0
30/01:00am 23.2 20.4 16.3 65 4.2 SSW 26 33 14 18 1012.1 1012.1 0.0
30/12:30am 23.4 20.5 16.2 64 4.4 SSW 26 32 14 17 1012.2 1012.2 0.0
30/12:00am 23.7 21.1 16.0 62 4.7 SSW 24 30 13 16 1012.5 1012.5 0.0
 
Date/Time
WST
Temp
°C
App
Temp
°C
Dew
Point
Rel
Hum
%
Delta-T
°C
Wind Press
QNH
hPa
Press
MSL
hPa
Rain
since 9 am
mm
Dir
 
Spd
km/h
Gust
km/h
Spd
kts
Gust
kts
29/11:30pm 23.9 20.9 15.9 61 4.8 SW 26 39 14 21 1012.7 1012.7 0.0
29/11:00pm 24.1 20.9 16.4 62 4.7 SW 28 35 15 19 1012.7 1012.7 0.0
29/10:30pm 24.4 21.5 17.1 63 4.5 SW 28 35 15 19 1012.9 1012.9 0.0
29/10:00pm 25.0 22.4 17.7 64 4.6 SW 28 35 15 19 1013.0 1013.0 0.0
29/09:30pm 25.7 22.6 17.4 60 5.2 SW 30 41 16 22 1012.8 1012.8 0.0
29/09:00pm 26.6 23.4 15.3 50 6.9 SW 26 35 14 19 1012.7 1012.7 0.0
29/08:30pm 25.8 24.9 16.9 58 5.5 WSW 17 20 9 11 1012.5 1012.5 0.0
29/08:00pm 25.8 25.1 17.4 59 5.3 W 17 20 9 11 1012.3 1012.3 0.0
29/07:30pm 25.9 25.8 18.8 65 4.5 W 17 20 9 11 1012.0 1012.0 0.0
29/07:00pm 25.9 25.5 19.3 67 4.2 W 20 24 11 13 1011.6 1011.6 0.0
29/06:30pm 26.6 24.7 17.7 58 5.6 W 24 28 13 15 1011.5 1011.5 0.0
29/06:00pm 27.9 25.4 17.1 51 6.8 W 26 32 14 17 1011.3 1011.3 0.0
29/05:30pm 28.3 26.6 19.0 57 6.0 W 26 33 14 18 1011.1 1011.1 0.0
29/05:00pm 29.0 26.3 17.5 49 7.3 W 28 33 15 18 1011.2 1011.2 0.0
29/04:30pm 29.6 27.1 18.1 50 7.4 W 28 35 15 19 1011.0 1011.0 0.0
29/04:00pm 29.8 26.4 17.6 48 7.8 W 32 37 17 20 1011.0 1011.0 0.0
29/03:30pm 30.6 26.4 16.2 41 9.0 W 33 43 18 23 1011.0 1011.0 0.0
29/03:00pm 31.6 26.6 15.1 36 10.2 W 35 43 19 23 1011.1 1011.1 0.0
29/02:30pm 31.9 25.9 13.2 32 11.2 W 37 44 20 24 1011.1 1011.1 0.0
29/02:00pm 31.3 27.8 17.9 44 8.6 W 33 43 18 23 1011.3 1011.3 0.0
29/01:30pm 31.0 28.9 19.7 51 7.4 WNW 30 35 16 19 1011.6 1011.6 0.0
29/01:00pm 30.4 28.8 20.0 53 6.9 WNW 28 35 15 19 1012.1 1012.1 0.0
29/12:30pm 31.7 30.5 20.0 50 7.7 WNW 26 32 14 17 1012.3 1012.3 0.0
29/12:00pm 33.2 31.9 18.2 41 9.7 WNW 22 28 12 15 1012.6 1012.6 0.0
29/11:30am 35.4 33.5 11.7 23 14.1 SW 13 19 7 10 1012.8 1012.8 0.0
29/11:00am 33.2 31.2 13.8 31 11.8 SSW 17 22 9 12 1012.8 1012.8 0.0
29/10:30am 31.2 29.3 15.2 38 9.9 SW 19 26 10 14 1013.2 1013.2 0.0
29/10:00am 30.6 28.7 15.8 40 9.2 SSW 20 28 11 15 1013.4 1013.4 0.0
29/09:30am 29.3 27.6 17.2 48 7.6 SSW 22 32 12 17 1013.5 1013.5 0.0
29/09:00am 26.6 24.2 17.4 57 5.8 SSW 26 32 14 17 1013.6 1013.6 0.0
29/08:30am 25.1 22.9 17.8 64 4.6 SSW 26 33 14 18 1013.6 1013.6 0.0
29/08:00am 23.3 20.6 17.5 70 3.6 SSW 28 35 15 19 1013.5 1013.5 0.0
29/07:30am 22.4 19.9 18.0 76 2.7 SSW 28 37 15 20 1013.7 1013.7 0.0
29/07:00am 21.3 19.0 17.7 80 2.2 SW 26 35 14 19 1013.4 1013.4 0.0
29/06:30am 20.6 18.3 17.6 83 1.8 SW 26 33 14 18 1013.2 1013.2 0.0
29/06:00am 20.6 18.7 17.6 83 1.8 SW 24 30 13 16 1012.7 1012.7 0.0
29/05:30am 20.7 18.7 17.5 82 2.0 SW 24 32 13 17 1012.5 1012.5 0.0
29/05:00am 20.9 19.3 17.5 81 2.1 SW 22 30 12 16 1012.3 1012.3 0.0
29/04:30am 21.1 19.1 17.3 79 2.3 SW 24 32 13 17 1012.0 1012.0 0.0
29/04:00am 21.3 18.6 17.5 79 2.3 SW 28 33 15 18 1011.7 1011.7 0.0
29/03:30am 21.4 19.7 17.2 77 2.6 SW 22 28 12 15 1011.7 1011.7 0.0
29/03:00am 21.9 20.8 17.3 75 2.8 SW 19 24 10 13 1011.5 1011.5 0.0
29/02:30am 22.2 21.1 17.3 74 3.0 SW 19 24 10 13 1011.2 1011.2 0.0
29/02:00am 22.5 21.8 17.4 73 3.2 SSW 17 22 9 12 1011.2 1011.2 0.0
29/01:30am 22.8 22.1 17.3 71 3.4 SSW 17 22 9 12 1011.4 1011.4 0.0
29/01:00am 23.2 22.1 17.2 69 3.7 SSW 19 26 10 14 1011.5 1011.5 0.0
29/12:30am 23.5 22.1 17.0 67 4.0 SW 20 26 11 14 1011.5 1011.5 0.0
29/12:00am 23.8 22.2 16.6 64 4.4 SW 20 24 11 13 1011.6 1011.6 0.0
 
Date/Time
WST
Temp
°C
App
Temp
°C
Dew
Point
Rel
Hum
%
Delta-T
°C
Wind Press
QNH
hPa
Press
MSL
hPa
Rain
since 9 am
mm
Dir
 
Spd
km/h
Gust
km/h
Spd
kts
Gust
kts
28/11:30pm 24.2 22.5 16.2 61 4.9 SW 20 26 11 14 1011.5 1011.5 0.0
28/11:00pm 24.6 22.5 16.1 59 5.2 SW 22 30 12 16 1011.5 1011.5 0.0
28/10:30pm 25.1 23.1 16.5 59 5.3 SW 22 28 12 15 1011.4 1011.4 0.0

Other Formats:

Comma delimited format used in spreadsheet applications
http://www.bom.gov.au/fwo/IDW60801/IDW60801.95305.axf

JavaScript Object Notation format (JSON) in row-major order
http://www.bom.gov.au/fwo/IDW60801/IDW60801.95305.json